Latest Weather Observations for Karratha

IDW60801

Issued at 8:33 pm WST Friday 19 December 2014 (issued every 30 minutes, with the page automatically refreshed every 10 minutes)

About weather observations | Map of weather stations | Latest weather observations for WA | Other Formats
Station Details ID: 004083 Name: KARRATHA AERO Lat: -20.71 Lon: 116.77 Height: 5.3 m
Data from the previous 72 hours. | See also: Recent months at Karratha
Date/Time
WST
Temp
°C
App
Temp
°C
Dew
Point
Rel
Hum
%
Delta-T
°C
Wind Press
QNH
hPa
Press
MSL
hPa
Rain
since 9 am
mm
Dir
 
Spd
km/h
Gust
km/h
Spd
kts
Gust
kts
19/08:30pm 27.0 28.9 23.7 82 2.3 WNW 20 26 11 14 1010.6 1010.6 0.0
19/08:00pm 27.2 28.7 23.7 81 2.4 WNW 22 26 12 14 1010.3 1010.3 0.0
19/07:30pm 27.5 29.5 23.9 81 2.5 NW 20 24 11 13 1010.1 1010.1 0.0
19/07:00pm 28.1 28.9 23.2 74 3.4 WNW 24 32 13 17 1009.4 1009.4 0.0
19/06:30pm 28.9 29.1 21.4 64 5.0 NW 22 28 12 15 1009.4 1009.4 0.0
19/06:00pm 29.8 30.9 22.3 64 5.1 NNW 20 30 11 16 1009.1 1009.1 0.0
19/05:30pm 30.0 30.8 21.7 61 5.6 NNW 20 26 11 14 1009.1 1009.1 0.0
19/05:00pm 30.9 31.4 21.1 56 6.6 NNW 20 28 11 15 1008.9 1008.9 0.0
19/04:30pm 31.6 31.1 19.2 47 8.1 NNW 20 26 11 14 1008.6 1008.6 0.0
19/04:00pm 32.8 30.7 15.3 34 10.9 NNW 20 26 11 14 1008.4 1008.4 0.0
19/03:30pm 33.2 31.7 17.8 40 9.9 NW 22 28 12 15 1008.1 1008.1 0.0
19/03:00pm 33.8 32.4 17.1 37 10.7 NW 20 26 11 14 1008.4 1008.4 0.0
19/02:30pm 33.1 32.4 19.6 45 8.9 NW 22 28 12 15 1008.4 1008.4 0.0
19/02:00pm 33.1 34.0 21.9 51 7.6 NW 20 26 11 14 1008.9 1008.9 0.0
19/01:30pm 32.0 32.7 21.5 53 7.1 NNW 20 26 11 14 1009.0 1009.0 0.0
19/01:00pm 31.8 33.2 23.6 62 5.7 NNW 22 30 12 16 1009.1 1009.1 0.0
19/12:30pm 32.1 34.1 23.9 62 5.7 NNW 20 26 11 14 1009.3 1009.3 0.0
19/12:00pm 33.2 34.8 22.9 54 7.1 NW 19 24 10 13 1009.4 1009.4 0.0
19/11:30am 31.9 33.8 22.0 55 6.7 WNW 15 24 8 13 1009.6 1009.6 0.0
19/11:00am 31.9 33.4 22.0 55 6.7 WNW 17 24 9 13 1009.8 1009.8 0.0
19/10:30am 31.7 34.5 24.3 65 5.2 WNW 17 26 9 14 1010.0 1010.0 0.0
19/10:00am 30.6 33.0 24.3 69 4.4 WNW 19 24 10 13 1010.1 1010.1 0.0
19/09:30am 29.5 31.8 24.1 72 3.7 W 19 24 10 13 1010.1 1010.1 0.0
19/09:00am 29.1 32.0 24.4 76 3.3 WNW 17 24 9 13 1010.5 1010.5 0.0
19/08:30am 28.8 30.9 24.1 76 3.3 WNW 20 26 11 14 1010.3 1010.3 0.0
19/08:00am 28.5 31.3 24.3 78 2.9 WNW 17 20 9 11 1010.1 1010.1 0.0
19/07:30am 28.0 30.7 24.2 80 2.6 WNW 17 20 9 11 1009.8 1009.8 0.0
19/07:00am 27.1 30.0 24.4 85 1.9 NW 17 20 9 11 1009.4 1009.4 0.0
19/06:30am 26.9 29.8 24.5 87 1.7 WNW 17 20 9 11 1008.8 1008.8 0.0
19/06:00am 26.3 29.5 24.3 89 1.4 WNW 15 20 8 11 1008.5 1008.5 0.0
19/05:30am 26.1 28.8 24.1 89 1.4 WNW 17 20 9 11 1008.2 1008.2 0.0
19/05:00am 26.2 28.5 24.1 88 1.4 W 19 22 10 12 1008.0 1008.0 0.0
19/04:30am 26.0 29.1 24.2 90 1.2 NW 15 20 8 11 1008.1 1008.1 0.0
19/04:00am 26.0 28.7 24.2 90 1.2 WNW 17 19 9 10 1008.0 1008.0 0.0
19/03:30am 26.1 28.8 24.1 89 1.4 WNW 17 20 9 11 1007.9 1007.9 0.0
19/03:00am 26.2 29.1 24.4 90 1.2 WNW 17 20 9 11 1007.8 1007.8 0.0
19/02:30am 26.3 29.2 24.5 90 1.2 NW 17 20 9 11 1007.8 1007.8 0.0
19/02:00am 26.4 29.8 24.6 90 1.3 NW 15 20 8 11 1007.7 1007.7 0.0
19/01:30am 26.8 29.6 24.3 86 1.7 WNW 17 20 9 11 1007.6 1007.6 0.0
19/01:00am 26.9 30.0 24.2 85 1.9 WNW 15 20 8 11 1007.8 1007.8 0.0
19/12:30am 26.9 30.1 24.4 86 1.7 WNW 15 19 8 10 1008.1 1008.1 0.0
19/12:00am 27.1 30.2 24.2 84 2.0 WNW 15 19 8 10 1008.4 1008.4 0.0
 
Date/Time
WST
Temp
°C
App
Temp
°C
Dew
Point
Rel
Hum
%
Delta-T
°C
Wind Press
QNH
hPa
Press
MSL
hPa
Rain
since 9 am
mm
Dir
 
Spd
km/h
Gust
km/h
Spd
kts
Gust
kts
18/11:30pm 27.3 30.4 24.2 83 2.1 WNW 15 20 8 11 1008.4 1008.4 0.0
18/11:00pm 27.3 30.5 24.4 84 2.0 WNW 15 19 8 10 1008.4 1008.4 0.0
18/10:30pm 27.4 29.9 24.5 84 2.0 WNW 19 24 10 13 1008.1 1008.1 0.0
18/10:00pm 27.5 30.0 24.5 84 2.1 W 19 24 10 13 1007.9 1007.9 0.0
18/09:30pm 27.6 30.2 24.6 84 2.1 WNW 19 24 10 13 1007.7 1007.7 0.0
18/09:00pm 27.8 29.7 24.4 82 2.4 WNW 22 32 12 17 1007.1 1007.1 0.0
18/08:30pm 27.9 29.2 24.1 80 2.6 WNW 24 33 13 18 1007.0 1007.0 0.0
18/08:00pm 27.9 28.5 24.1 80 2.6 WNW 28 35 15 19 1006.6 1006.6 0.0
18/07:30pm 28.0 29.0 24.2 80 2.6 WNW 26 33 14 18 1006.1 1006.1 0.0
18/07:00pm 28.3 29.3 24.1 78 2.9 WNW 26 32 14 17 1005.9 1005.9 0.0
18/06:30pm 28.7 29.6 24.0 76 3.3 WNW 26 37 14 20 1005.4 1005.3 0.0
18/06:00pm 29.2 29.8 24.1 74 3.5 WNW 28 35 15 19 1005.0 1004.9 0.0
18/05:30pm 30.1 30.2 24.0 70 4.2 WNW 30 39 16 21 1004.7 1004.6 0.0
18/05:00pm 30.1 30.5 24.5 72 3.9 WNW 30 35 16 19 1004.5 1004.4 0.0
18/04:30pm 30.9 30.7 24.1 67 4.7 WNW 32 41 17 22 1004.6 1004.5 0.0
18/04:00pm 32.4 32.0 23.1 58 6.4 WNW 30 39 16 21 1004.6 1004.5 0.0
18/03:30pm 33.0 31.3 20.5 47 8.3 WNW 30 39 16 21 1004.8 1004.7 0.0
18/03:00pm 33.7 30.6 17.4 37 10.5 WNW 30 39 16 21 1004.9 1004.8 0.0
18/02:30pm 34.6 32.5 19.0 39 10.3 WNW 28 35 15 19 1005.0 1004.9 0.0
18/02:00pm 34.8 34.2 20.4 43 9.7 WNW 24 30 13 16 1005.2 1005.1 0.0
18/01:30pm 33.6 33.5 21.4 48 8.3 WNW 24 30 13 16 1005.5 1005.4 0.0
18/01:00pm 32.6 33.3 23.0 57 6.6 WNW 24 30 13 16 1005.7 1005.6 0.0
18/12:30pm 32.8 33.1 22.9 56 6.8 WNW 26 32 14 17 1005.9 1005.9 0.0
18/12:00pm 32.7 33.5 23.1 57 6.6 WNW 24 32 13 17 1006.3 1006.3 0.0
18/11:30am 32.4 33.0 22.8 57 6.6 WNW 24 32 13 17 1006.6 1006.6 0.0
18/11:00am 31.5 31.9 22.5 59 6.2 WNW 24 32 13 17 1006.8 1006.8 0.0
18/10:30am 31.8 32.8 22.8 59 6.2 WNW 22 28 12 15 1007.0 1007.0 0.0
18/10:00am 31.8 32.1 22.2 56 6.5 W 24 28 13 15 1007.0 1007.0 0.0
18/09:30am 31.2 31.3 21.9 57 6.3 WNW 24 28 13 15 1007.1 1007.1 0.0
18/09:00am 30.0 30.4 23.2 67 4.7 W 26 32 14 17 1007.1 1007.1 0.0
18/08:30am 30.0 31.2 23.9 70 4.2 W 24 30 13 16 1007.1 1007.1 0.0
18/08:00am 29.0 30.3 24.1 75 3.4 W 24 28 13 15 1007.1 1007.1 0.0
18/07:30am 28.8 31.2 24.6 78 2.9 W 20 24 11 13 1006.9 1006.9 0.0
18/07:00am 27.9 29.7 24.3 81 2.5 W 22 28 12 15 1006.7 1006.7 0.0
18/06:30am 27.3 29.3 24.6 85 1.9 W 22 28 12 15 1006.2 1006.2 0.0
18/06:00am 26.5 28.3 24.2 87 1.6 W 22 28 12 15 1006.0 1006.0 0.0
18/05:30am 26.2 28.0 24.2 89 1.4 WNW 22 28 12 15 1005.8 1005.8 0.0
18/05:00am 26.2 27.5 24.1 88 1.4 WNW 24 32 13 17 1005.5 1005.4 0.0
18/04:30am 26.2 27.5 24.1 88 1.4 WNW 24 32 13 17 1005.4 1005.3 0.0
18/04:00am 26.2 27.9 24.1 88 1.4 WNW 22 30 12 16 1005.2 1005.1 0.0
18/03:30am 26.2 27.9 24.1 88 1.4 WNW 22 30 12 16 1005.2 1005.1 0.0
18/03:00am 26.3 28.5 24.3 89 1.4 WNW 20 28 11 15 1005.3 1005.2 0.0
18/02:30am 26.3 28.5 24.2 88 1.4 WNW 20 28 11 15 1005.4 1005.3 0.0
18/02:00am 26.4 27.6 23.9 86 1.7 WNW 24 30 13 16 1005.4 1005.3 0.0
18/01:30am 26.5 28.2 24.0 86 1.7 WNW 22 30 12 16 1005.4 1005.3 0.0
18/01:00am 26.5 28.1 23.8 85 1.9 WNW 22 30 12 16 1005.6 1005.5 0.0
18/12:30am 26.6 28.2 23.9 85 1.9 WNW 22 28 12 15 1005.9 1005.9 0.0
18/12:00am 26.7 28.0 24.0 85 1.9 WNW 24 32 13 17 1006.1 1006.1 0.0
 
Date/Time
WST
Temp
°C
App
Temp
°C
Dew
Point
Rel
Hum
%
Delta-T
°C
Wind Press
QNH
hPa
Press
MSL
hPa
Rain
since 9 am
mm
Dir
 
Spd
km/h
Gust
km/h
Spd
kts
Gust
kts
17/11:30pm 26.7 27.9 23.8 84 2.0 WNW 24 32 13 17 1006.1 1006.1 0.0
17/11:00pm 26.9 28.3 23.6 82 2.3 WNW 22 28 12 15 1006.2 1006.2 0.0
17/10:30pm 27.1 28.2 23.1 79 2.7 WNW 22 28 12 15 1006.3 1006.3 0.0
17/10:00pm 27.3 28.2 22.7 76 3.1 WNW 22 30 12 16 1006.1 1006.1 0.0
17/09:30pm 27.6 28.2 22.8 75 3.3 NW 24 30 13 16 1005.9 1005.9 0.0
17/09:00pm 27.5 28.5 22.9 76 3.1 NW 22 28 12 15 1005.5 1005.4 0.0
17/08:30pm 27.7 28.5 23.1 76 3.1 WNW 24 30 13 16 1005.1 1005.0 0.0
17/08:00pm 27.9 28.1 22.8 74 3.5 WNW 26 32 14 17 1004.8 1004.7 0.0
17/07:30pm 27.9 27.9 23.1 75 3.3 WNW 28 35 15 19 1004.3 1004.2 0.0
17/07:00pm 28.2 28.6 23.1 74 3.5 NW 26 33 14 18 1003.9 1003.8 0.0
17/06:30pm 29.0 29.4 23.7 73 3.7 NW 28 35 15 19 1003.5 1003.4 0.0
17/06:00pm 29.7 29.1 22.7 66 4.8 WNW 30 39 16 21 1003.3 1003.2 0.0
17/05:30pm 30.6 30.3 22.5 62 5.5 WNW 28 37 15 20 1003.1 1003.0 0.0
17/05:00pm 31.2 30.9 22.5 60 6.0 NW 28 35 15 19 1002.7 1002.6 0.0
17/04:30pm 31.6 31.5 22.9 60 6.0 NW 28 33 15 18 1002.3 1002.2 0.0
17/04:00pm 32.0 31.7 23.3 60 6.0 NW 30 39 16 21 1002.1 1002.0 0.0
17/03:30pm 33.1 32.6 22.8 54 7.1 WNW 30 41 16 22 1002.2 1002.1 0.0
17/03:00pm 31.9 31.3 22.6 58 6.4 NW 30 39 16 21 1002.5 1002.4 0.0
17/02:30pm 32.5 31.0 22.0 54 7.1 WNW 33 41 18 22 1002.9 1002.8 0.0
17/02:00pm 32.2 30.4 21.1 52 7.5 WNW 32 41 17 22 1003.3 1003.2 0.0
17/01:30pm 33.9 31.9 19.9 43 9.3 NW 30 37 16 20 1003.7 1003.6 0.0
17/01:00pm 32.0 32.2 24.1 63 5.5 NW 30 37 16 20 1003.9 1003.8 0.0
17/12:30pm 31.5 32.0 23.9 64 5.3 WNW 28 35 15 19 1004.0 1003.9 0.0
17/12:00pm 30.8 31.3 24.0 67 4.7 WNW 28 39 15 21 1004.2 1004.1 0.0
17/11:30am 31.3 32.3 24.2 66 5.0 WNW 26 32 14 17 1004.5 1004.4 0.0
17/11:00am 31.5 31.7 24.1 65 5.2 W 30 35 16 19 1004.7 1004.6 0.0
17/10:30am 30.9 31.5 24.1 67 4.7 W 28 35 15 19 1004.9 1004.8 0.0
17/10:00am 30.2 31.3 23.6 67 4.6 WNW 24 30 13 16 1005.3 1005.2 0.0
17/09:30am 29.7 30.4 23.6 69 4.2 W 26 32 14 17 1005.4 1005.3 0.0
17/09:00am 29.3 30.3 24.2 74 3.5 W 26 32 14 17 1005.7 1005.6 0.0
17/08:30am 28.8 29.3 23.9 75 3.4 W 28 35 15 19 1005.8 1005.8 0.0
17/08:00am 28.4 29.0 24.2 78 2.9 W 28 35 15 19 1005.7 1005.6 0.0
17/07:30am 27.6 28.2 24.2 82 2.4 W 28 33 15 18 1005.7 1005.6 0.0
17/07:03am 27.1 27.2 24.0 83 2.1 W 30 35 16 19 1005.5 1005.4 0.0
17/07:00am 27.1 27.2 24.0 83 2.1 W 30 35 16 19 1005.5 1005.4 0.0
17/06:30am 26.5 26.9 23.8 85 1.9 W 28 33 15 18 1005.3 1005.2 0.0
17/06:00am 25.9 26.7 23.8 88 1.4 W 26 32 14 17 1005.0 1004.9 0.0
17/05:57am 25.8 26.5 23.7 88 1.4 W 26 32 14 17 1005.0 1004.9 0.0
17/05:30am 25.5 25.8 23.6 89 1.3 W 28 32 15 17 1004.5 1004.4 0.0
17/05:00am 25.4 26.4 23.5 89 1.3 W 24 28 13 15 1004.4 1004.3 0.0
17/04:30am 25.5 25.7 23.4 88 1.4 W 28 35 15 19 1004.3 1004.2 0.0
17/04:00am 25.5 26.3 23.2 87 1.6 W 24 30 13 16 1004.3 1004.2 0.0
17/03:30am 25.5 26.4 23.4 88 1.4 WNW 24 35 13 19 1004.3 1004.2 0.0
17/03:00am 25.6 26.1 23.3 87 1.6 WNW 26 35 14 19 1004.3 1004.2 0.0
17/02:30am 25.6 26.9 23.3 87 1.6 WNW 22 32 12 17 1004.8 1004.7 0.0
17/02:00am 25.6 26.7 23.1 86 1.7 WNW 22 28 12 15 1005.2 1005.1 0.0
17/01:30am 25.7 26.8 23.0 85 1.8 WNW 22 30 12 16 1005.3 1005.2 0.0
17/01:00am 25.8 27.2 22.9 84 2.0 WNW 20 26 11 14 1005.6 1005.5 0.0
17/12:30am 25.8 26.8 22.9 84 2.0 WNW 22 28 12 15 1006.1 1006.1 0.0
17/12:00am 25.9 27.4 23.0 84 2.0 WNW 20 28 11 15 1006.5 1006.5 0.0
 
Date/Time
WST
Temp
°C
App
Temp
°C
Dew
Point
Rel
Hum
%
Delta-T
°C
Wind Press
QNH
hPa
Press
MSL
hPa
Rain
since 9 am
mm
Dir
 
Spd
km/h
Gust
km/h
Spd
kts
Gust
kts
16/11:30pm 26.0 27.6 23.3 85 1.8 WNW 20 28 11 15 1006.7 1006.7 0.0
16/11:00pm 25.9 26.8 23.4 86 1.7 WNW 24 30 13 16 1006.9 1006.9 0.0
16/10:30pm 26.1 26.7 23.4 85 1.8 W 26 35 14 19 1006.9 1006.9 0.0
16/10:00pm 26.4 26.3 23.5 84 2.0 W 30 39 16 21 1006.9 1006.9 0.0
16/09:30pm 26.4 26.6 23.5 84 2.0 W 28 35 15 19 1006.7 1006.7 0.0
16/09:00pm 26.6 26.2 23.1 81 2.4 W 30 37 16 20 1006.2 1006.2 0.0

Other Formats:

Comma delimited format used in spreadsheet applications
http://www.bom.gov.au/fwo/IDW60801/IDW60801.95307.axf

JavaScript Object Notation format (JSON) in row-major order
http://www.bom.gov.au/fwo/IDW60801/IDW60801.95307.json